sensor_id;sensor_type;location;lat;lon;timestamp;P1;durP1;ratioP1;P2;durP2;ratioP2
31652;SDS011;18261;53.648;9.910;2022-11-15T00:02:13;88.07;;;43.58;;
31652;SDS011;18261;53.648;9.910;2022-11-15T00:04:39;76.75;;;40.92;;
31652;SDS011;18261;53.648;9.910;2022-11-15T00:07:05;81.13;;;43.03;;
31652;SDS011;18261;53.648;9.910;2022-11-15T00:09:31;86.57;;;43.38;;
31652;SDS011;18261;53.648;9.910;2022-11-15T00:11:57;80.78;;;41.58;;
31652;SDS011;18261;53.648;9.910;2022-11-15T00:14:23;87.90;;;43.83;;
31652;SDS011;18261;53.648;9.910;2022-11-15T00:16:49;87.45;;;43.40;;
31652;SDS011;18261;53.648;9.910;2022-11-15T00:19:15;82.00;;;42.50;;
31652;SDS011;18261;53.648;9.910;2022-11-15T00:21:41;80.80;;;42.83;;
31652;SDS011;18261;53.648;9.910;2022-11-15T00:24:07;77.90;;;41.92;;
31652;SDS011;18261;53.648;9.910;2022-11-15T00:26:33;80.72;;;42.22;;
31652;SDS011;18261;53.648;9.910;2022-11-15T00:28:59;83.63;;;41.63;;
31652;SDS011;18261;53.648;9.910;2022-11-15T00:31:25;83.32;;;43.90;;
31652;SDS011;18261;53.648;9.910;2022-11-15T00:33:51;85.30;;;43.97;;
31652;SDS011;18261;53.648;9.910;2022-11-15T00:36:17;80.85;;;42.53;;
31652;SDS011;18261;53.648;9.910;2022-11-15T00:38:43;75.68;;;41.13;;
31652;SDS011;18261;53.648;9.910;2022-11-15T00:41:09;80.35;;;42.25;;
31652;SDS011;18261;53.648;9.910;2022-11-15T00:43:35;79.25;;;42.17;;
31652;SDS011;18261;53.648;9.910;2022-11-15T00:46:01;80.95;;;42.10;;
31652;SDS011;18261;53.648;9.910;2022-11-15T00:48:28;78.65;;;41.80;;
31652;SDS011;18261;53.648;9.910;2022-11-15T00:50:54;78.63;;;40.88;;
31652;SDS011;18261;53.648;9.910;2022-11-15T00:53:20;76.57;;;39.90;;
31652;SDS011;18261;53.648;9.910;2022-11-15T00:55:46;80.00;;;40.83;;
31652;SDS011;18261;53.648;9.910;2022-11-15T00:58:11;76.50;;;40.95;;
31652;SDS011;18261;53.648;9.910;2022-11-15T01:00:37;78.53;;;40.05;;
31652;SDS011;18261;53.648;9.910;2022-11-15T01:03:03;83.70;;;40.53;;
31652;SDS011;18261;53.648;9.910;2022-11-15T01:05:29;75.90;;;41.17;;
31652;SDS011;18261;53.648;9.910;2022-11-15T01:07:55;73.57;;;39.35;;
31652;SDS011;18261;53.648;9.910;2022-11-15T01:10:22;68.32;;;37.97;;
31652;SDS011;18261;53.648;9.910;2022-11-15T01:12:48;70.25;;;38.72;;
31652;SDS011;18261;53.648;9.910;2022-11-15T01:15:14;79.75;;;40.72;;
31652;SDS011;18261;53.648;9.910;2022-11-15T01:17:40;74.55;;;41.50;;
31652;SDS011;18261;53.648;9.910;2022-11-15T01:20:06;78.70;;;40.15;;
31652;SDS011;18261;53.648;9.910;2022-11-15T01:22:32;65.85;;;37.20;;
31652;SDS011;18261;53.648;9.910;2022-11-15T01:24:58;75.30;;;41.22;;
31652;SDS011;18261;53.648;9.910;2022-11-15T01:27:24;70.05;;;39.75;;
31652;SDS011;18261;53.648;9.910;2022-11-15T01:29:50;68.50;;;38.35;;
31652;SDS011;18261;53.648;9.910;2022-11-15T01:32:16;73.10;;;40.03;;
31652;SDS011;18261;53.648;9.910;2022-11-15T01:34:42;68.95;;;38.42;;
31652;SDS011;18261;53.648;9.910;2022-11-15T01:37:08;79.07;;;40.22;;
31652;SDS011;18261;53.648;9.910;2022-11-15T01:39:34;67.10;;;38.17;;
31652;SDS011;18261;53.648;9.910;2022-11-15T01:42:00;76.47;;;40.05;;
31652;SDS011;18261;53.648;9.910;2022-11-15T01:44:40;75.60;;;38.92;;
31652;SDS011;18261;53.648;9.910;2022-11-15T01:47:13;68.65;;;38.13;;
31652;SDS011;18261;53.648;9.910;2022-11-15T01:49:45;72.97;;;41.55;;
31652;SDS011;18261;53.648;9.910;2022-11-15T01:52:13;78.38;;;39.15;;
31652;SDS011;18261;53.648;9.910;2022-11-15T01:54:39;79.07;;;39.53;;
31652;SDS011;18261;53.648;9.910;2022-11-15T01:57:06;74.43;;;39.58;;
31652;SDS011;18261;53.648;9.910;2022-11-15T01:59:34;75.35;;;39.80;;
31652;SDS011;18261;53.648;9.910;2022-11-15T02:02:00;71.43;;;39.20;;
31652;SDS011;18261;53.648;9.910;2022-11-15T02:04:32;66.13;;;37.17;;
31652;SDS011;18261;53.648;9.910;2022-11-15T02:06:59;70.85;;;38.65;;
31652;SDS011;18261;53.648;9.910;2022-11-15T02:09:26;71.22;;;39.22;;
31652;SDS011;18261;53.648;9.910;2022-11-15T02:11:52;73.28;;;39.83;;
31652;SDS011;18261;53.648;9.910;2022-11-15T02:14:20;70.65;;;37.83;;
31652;SDS011;18261;53.648;9.910;2022-11-15T02:16:57;69.30;;;38.55;;
31652;SDS011;18261;53.648;9.910;2022-11-15T02:19:39;63.65;;;36.15;;
31652;SDS011;18261;53.648;9.910;2022-11-15T02:24:57;69.25;;;39.28;;
31652;SDS011;18261;53.648;9.910;2022-11-15T02:32:29;67.07;;;36.78;;
31652;SDS011;18261;53.648;9.910;2022-11-15T02:37:32;70.75;;;38.25;;
31652;SDS011;18261;53.648;9.910;2022-11-15T02:40:24;71.53;;;37.97;;
31652;SDS011;18261;53.648;9.910;2022-11-15T02:42:51;68.03;;;37.83;;
31652;SDS011;18261;53.648;9.910;2022-11-15T02:45:37;67.35;;;37.72;;
31652;SDS011;18261;53.648;9.910;2022-11-15T02:48:05;70.10;;;37.22;;
31652;SDS011;18261;53.648;9.910;2022-11-15T02:50:31;67.63;;;36.78;;
31652;SDS011;18261;53.648;9.910;2022-11-15T02:52:58;74.15;;;39.10;;
31652;SDS011;18261;53.648;9.910;2022-11-15T02:55:26;74.40;;;39.03;;
31652;SDS011;18261;53.648;9.910;2022-11-15T02:57:54;73.65;;;39.50;;
31652;SDS011;18261;53.648;9.910;2022-11-15T03:00:22;69.03;;;37.50;;
31652;SDS011;18261;53.648;9.910;2022-11-15T03:07:50;72.07;;;37.30;;
31652;SDS011;18261;53.648;9.910;2022-11-15T03:10:32;74.37;;;38.20;;
31652;SDS011;18261;53.648;9.910;2022-11-15T03:13:48;63.25;;;36.63;;
31652;SDS011;18261;53.648;9.910;2022-11-15T03:15:52;69.32;;;35.60;;
31652;SDS011;18261;53.648;9.910;2022-11-15T03:18:21;74.35;;;37.70;;
31652;SDS011;18261;53.648;9.910;2022-11-15T03:20:49;74.30;;;37.40;;
31652;SDS011;18261;53.648;9.910;2022-11-15T03:23:16;69.82;;;37.58;;
31652;SDS011;18261;53.648;9.910;2022-11-15T03:25:44;74.90;;;36.63;;
31652;SDS011;18261;53.648;9.910;2022-11-15T03:28:12;64.95;;;35.00;;
31652;SDS011;18261;53.648;9.910;2022-11-15T03:30:39;67.53;;;36.40;;
31652;SDS011;18261;53.648;9.910;2022-11-15T03:33:06;78.80;;;39.00;;
31652;SDS011;18261;53.648;9.910;2022-11-15T03:35:33;70.75;;;37.13;;
31652;SDS011;18261;53.648;9.910;2022-11-15T03:40:40;68.90;;;37.28;;
31652;SDS011;18261;53.648;9.910;2022-11-15T03:43:11;63.85;;;35.17;;
31652;SDS011;18261;53.648;9.910;2022-11-15T03:48:20;63.00;;;34.83;;
31652;SDS011;18261;53.648;9.910;2022-11-15T03:50:47;67.20;;;36.08;;
31652;SDS011;18261;53.648;9.910;2022-11-15T03:53:13;61.53;;;33.72;;
31652;SDS011;18261;53.648;9.910;2022-11-15T03:55:39;61.35;;;33.60;;
31652;SDS011;18261;53.648;9.910;2022-11-15T03:58:05;67.57;;;36.88;;
31652;SDS011;18261;53.648;9.910;2022-11-15T04:00:31;66.93;;;34.95;;
31652;SDS011;18261;53.648;9.910;2022-11-15T04:02:57;60.38;;;34.72;;
31652;SDS011;18261;53.648;9.910;2022-11-15T04:05:23;64.72;;;35.05;;
31652;SDS011;18261;53.648;9.910;2022-11-15T04:07:49;63.78;;;34.60;;
31652;SDS011;18261;53.648;9.910;2022-11-15T04:10:15;60.03;;;33.83;;
31652;SDS011;18261;53.648;9.910;2022-11-15T04:12:42;58.85;;;33.65;;
31652;SDS011;18261;53.648;9.910;2022-11-15T04:15:13;62.50;;;34.00;;
31652;SDS011;18261;53.648;9.910;2022-11-15T04:20:06;59.80;;;32.30;;
31652;SDS011;18261;53.648;9.910;2022-11-15T04:22:52;59.88;;;32.25;;
31652;SDS011;18261;53.648;9.910;2022-11-15T04:28:03;62.97;;;32.85;;
31652;SDS011;18261;53.648;9.910;2022-11-15T04:30:29;63.95;;;33.53;;
31652;SDS011;18261;53.648;9.910;2022-11-15T04:32:55;55.80;;;31.85;;
31652;SDS011;18261;53.648;9.910;2022-11-15T04:35:21;61.63;;;32.97;;
31652;SDS011;18261;53.648;9.910;2022-11-15T04:37:46;55.22;;;31.77;;
31652;SDS011;18261;53.648;9.910;2022-11-15T04:40:12;61.95;;;33.88;;
31652;SDS011;18261;53.648;9.910;2022-11-15T04:42:40;62.58;;;33.47;;
31652;SDS011;18261;53.648;9.910;2022-11-15T04:45:07;59.97;;;32.40;;
31652;SDS011;18261;53.648;9.910;2022-11-15T04:47:33;66.28;;;32.17;;
31652;SDS011;18261;53.648;9.910;2022-11-15T04:49:59;62.58;;;34.20;;
31652;SDS011;18261;53.648;9.910;2022-11-15T04:52:25;53.88;;;30.95;;
31652;SDS011;18261;53.648;9.910;2022-11-15T04:54:50;54.55;;;31.75;;
31652;SDS011;18261;53.648;9.910;2022-11-15T04:57:17;60.38;;;32.47;;
31652;SDS011;18261;53.648;9.910;2022-11-15T04:59:42;54.58;;;30.60;;
31652;SDS011;18261;53.648;9.910;2022-11-15T05:02:08;53.97;;;29.85;;
31652;SDS011;18261;53.648;9.910;2022-11-15T05:04:34;59.97;;;31.67;;
31652;SDS011;18261;53.648;9.910;2022-11-15T05:07:00;56.92;;;30.85;;
31652;SDS011;18261;53.648;9.910;2022-11-15T05:09:27;52.03;;;30.92;;
31652;SDS011;18261;53.648;9.910;2022-11-15T05:11:53;58.90;;;32.88;;
31652;SDS011;18261;53.648;9.910;2022-11-15T05:14:18;56.20;;;31.25;;
31652;SDS011;18261;53.648;9.910;2022-11-15T05:16:44;55.13;;;30.92;;
31652;SDS011;18261;53.648;9.910;2022-11-15T05:19:10;57.13;;;31.25;;
31652;SDS011;18261;53.648;9.910;2022-11-15T05:21:36;56.55;;;31.15;;
31652;SDS011;18261;53.648;9.910;2022-11-15T05:24:03;56.92;;;31.95;;
31652;SDS011;18261;53.648;9.910;2022-11-15T05:26:29;59.92;;;30.88;;
31652;SDS011;18261;53.648;9.910;2022-11-15T05:28:55;53.42;;;29.83;;
31652;SDS011;18261;53.648;9.910;2022-11-15T05:31:22;54.58;;;30.33;;
31652;SDS011;18261;53.648;9.910;2022-11-15T05:33:48;53.83;;;28.98;;
31652;SDS011;18261;53.648;9.910;2022-11-15T05:38:47;52.55;;;29.42;;
31652;SDS011;18261;53.648;9.910;2022-11-15T05:41:14;56.08;;;30.70;;
31652;SDS011;18261;53.648;9.910;2022-11-15T05:43:41;53.10;;;29.55;;
31652;SDS011;18261;53.648;9.910;2022-11-15T05:46:07;54.05;;;31.40;;
31652;SDS011;18261;53.648;9.910;2022-11-15T05:48:34;57.03;;;29.13;;
31652;SDS011;18261;53.648;9.910;2022-11-15T05:51:01;51.75;;;28.33;;
31652;SDS011;18261;53.648;9.910;2022-11-15T05:53:29;49.70;;;28.88;;
31652;SDS011;18261;53.648;9.910;2022-11-15T05:55:55;48.65;;;26.45;;
31652;SDS011;18261;53.648;9.910;2022-11-15T05:58:21;52.78;;;29.17;;
31652;SDS011;18261;53.648;9.910;2022-11-15T06:00:47;53.28;;;28.20;;
31652;SDS011;18261;53.648;9.910;2022-11-15T06:03:13;52.17;;;28.88;;
31652;SDS011;18261;53.648;9.910;2022-11-15T06:05:39;46.78;;;28.38;;
31652;SDS011;18261;53.648;9.910;2022-11-15T06:08:05;54.15;;;28.65;;
31652;SDS011;18261;53.648;9.910;2022-11-15T06:10:32;49.38;;;27.58;;
31652;SDS011;18261;53.648;9.910;2022-11-15T06:15:24;46.17;;;26.02;;
31652;SDS011;18261;53.648;9.910;2022-11-15T06:17:50;47.75;;;25.65;;
31652;SDS011;18261;53.648;9.910;2022-11-15T06:20:16;51.15;;;26.27;;
31652;SDS011;18261;53.648;9.910;2022-11-15T06:22:43;48.05;;;26.85;;
31652;SDS011;18261;53.648;9.910;2022-11-15T06:25:09;44.55;;;24.83;;
31652;SDS011;18261;53.648;9.910;2022-11-15T06:27:35;49.55;;;25.13;;
31652;SDS011;18261;53.648;9.910;2022-11-15T06:30:01;47.65;;;25.90;;
31652;SDS011;18261;53.648;9.910;2022-11-15T06:32:28;45.60;;;26.25;;
31652;SDS011;18261;53.648;9.910;2022-11-15T06:34:54;47.88;;;25.17;;
31652;SDS011;18261;53.648;9.910;2022-11-15T06:37:20;47.25;;;24.85;;
31652;SDS011;18261;53.648;9.910;2022-11-15T06:39:46;45.80;;;26.45;;
31652;SDS011;18261;53.648;9.910;2022-11-15T06:42:12;45.15;;;25.63;;
31652;SDS011;18261;53.648;9.910;2022-11-15T06:44:38;51.13;;;25.40;;
31652;SDS011;18261;53.648;9.910;2022-11-15T06:47:04;49.55;;;25.27;;
31652;SDS011;18261;53.648;9.910;2022-11-15T06:49:30;44.10;;;25.77;;
31652;SDS011;18261;53.648;9.910;2022-11-15T06:51:56;44.90;;;25.30;;
31652;SDS011;18261;53.648;9.910;2022-11-15T06:54:22;48.70;;;24.80;;
31652;SDS011;18261;53.648;9.910;2022-11-15T06:56:48;45.58;;;25.10;;
31652;SDS011;18261;53.648;9.910;2022-11-15T06:59:14;47.05;;;25.23;;
31652;SDS011;18261;53.648;9.910;2022-11-15T07:01:40;44.35;;;24.63;;
31652;SDS011;18261;53.648;9.910;2022-11-15T07:04:06;41.70;;;24.48;;
31652;SDS011;18261;53.648;9.910;2022-11-15T07:06:31;42.67;;;24.80;;
31652;SDS011;18261;53.648;9.910;2022-11-15T07:08:57;45.17;;;25.67;;
31652;SDS011;18261;53.648;9.910;2022-11-15T07:11:23;47.53;;;25.38;;
31652;SDS011;18261;53.648;9.910;2022-11-15T07:13:49;46.58;;;25.10;;
31652;SDS011;18261;53.648;9.910;2022-11-15T07:16:15;44.20;;;25.17;;
31652;SDS011;18261;53.648;9.910;2022-11-15T07:18:41;48.13;;;25.35;;
31652;SDS011;18261;53.648;9.910;2022-11-15T07:21:08;43.67;;;24.50;;
31652;SDS011;18261;53.648;9.910;2022-11-15T07:23:35;45.95;;;24.50;;
31652;SDS011;18261;53.648;9.910;2022-11-15T07:26:02;45.65;;;25.95;;
31652;SDS011;18261;53.648;9.910;2022-11-15T07:28:28;51.17;;;26.50;;
31652;SDS011;18261;53.648;9.910;2022-11-15T07:30:54;46.28;;;26.13;;
31652;SDS011;18261;53.648;9.910;2022-11-15T07:33:20;47.42;;;25.33;;
31652;SDS011;18261;53.648;9.910;2022-11-15T07:35:46;48.80;;;26.00;;
31652;SDS011;18261;53.648;9.910;2022-11-15T07:38:15;43.47;;;24.67;;
31652;SDS011;18261;53.648;9.910;2022-11-15T07:40:44;47.70;;;25.20;;
31652;SDS011;18261;53.648;9.910;2022-11-15T07:43:11;42.97;;;24.45;;
31652;SDS011;18261;53.648;9.910;2022-11-15T07:45:44;49.95;;;24.63;;
31652;SDS011;18261;53.648;9.910;2022-11-15T07:48:10;54.13;;;25.33;;
31652;SDS011;18261;53.648;9.910;2022-11-15T07:50:36;44.88;;;23.65;;
31652;SDS011;18261;53.648;9.910;2022-11-15T07:53:02;42.05;;;23.67;;
31652;SDS011;18261;53.648;9.910;2022-11-15T07:55:28;44.08;;;24.67;;
31652;SDS011;18261;53.648;9.910;2022-11-15T07:58:01;43.72;;;23.48;;
31652;SDS011;18261;53.648;9.910;2022-11-15T08:00:27;52.40;;;23.73;;
31652;SDS011;18261;53.648;9.910;2022-11-15T08:03:00;41.92;;;23.70;;
31652;SDS011;18261;53.648;9.910;2022-11-15T08:05:26;46.67;;;24.73;;
31652;SDS011;18261;53.648;9.910;2022-11-15T08:07:54;48.35;;;23.75;;
31652;SDS011;18261;53.648;9.910;2022-11-15T08:10:20;46.30;;;24.33;;
31652;SDS011;18261;53.648;9.910;2022-11-15T08:12:46;43.03;;;25.27;;
31652;SDS011;18261;53.648;9.910;2022-11-15T08:15:12;44.67;;;23.73;;
31652;SDS011;18261;53.648;9.910;2022-11-15T08:17:38;40.30;;;24.02;;
31652;SDS011;18261;53.648;9.910;2022-11-15T08:20:04;43.17;;;24.70;;
31652;SDS011;18261;53.648;9.910;2022-11-15T08:22:30;39.53;;;23.55;;
31652;SDS011;18261;53.648;9.910;2022-11-15T08:24:57;57.03;;;32.50;;
31652;SDS011;18261;53.648;9.910;2022-11-15T08:27:23;44.00;;;24.77;;
31652;SDS011;18261;53.648;9.910;2022-11-15T08:29:49;38.92;;;23.15;;
31652;SDS011;18261;53.648;9.910;2022-11-15T08:32:15;46.30;;;23.60;;
31652;SDS011;18261;53.648;9.910;2022-11-15T08:34:42;46.55;;;25.15;;
31652;SDS011;18261;53.648;9.910;2022-11-15T08:37:08;43.28;;;24.65;;
31652;SDS011;18261;53.648;9.910;2022-11-15T08:39:34;44.47;;;23.58;;
31652;SDS011;18261;53.648;9.910;2022-11-15T08:42:00;45.20;;;24.17;;
31652;SDS011;18261;53.648;9.910;2022-11-15T08:44:26;43.97;;;24.30;;
31652;SDS011;18261;53.648;9.910;2022-11-15T08:46:52;38.60;;;22.85;;
31652;SDS011;18261;53.648;9.910;2022-11-15T08:49:18;50.50;;;24.83;;
31652;SDS011;18261;53.648;9.910;2022-11-15T08:51:44;48.90;;;26.58;;
31652;SDS011;18261;53.648;9.910;2022-11-15T08:54:10;44.80;;;25.48;;
31652;SDS011;18261;53.648;9.910;2022-11-15T08:56:36;46.28;;;25.45;;
31652;SDS011;18261;53.648;9.910;2022-11-15T08:59:02;46.10;;;25.23;;
31652;SDS011;18261;53.648;9.910;2022-11-15T09:01:28;42.28;;;24.38;;
31652;SDS011;18261;53.648;9.910;2022-11-15T09:03:54;49.22;;;25.27;;
31652;SDS011;18261;53.648;9.910;2022-11-15T09:06:20;46.55;;;24.83;;
31652;SDS011;18261;53.648;9.910;2022-11-15T09:08:46;42.55;;;23.95;;
31652;SDS011;18261;53.648;9.910;2022-11-15T09:11:13;43.22;;;24.52;;
31652;SDS011;18261;53.648;9.910;2022-11-15T09:13:41;48.15;;;25.77;;
31652;SDS011;18261;53.648;9.910;2022-11-15T09:16:07;44.05;;;24.40;;
31652;SDS011;18261;53.648;9.910;2022-11-15T09:18:33;42.40;;;24.00;;
31652;SDS011;18261;53.648;9.910;2022-11-15T09:20:59;50.97;;;25.52;;
31652;SDS011;18261;53.648;9.910;2022-11-15T09:23:27;43.05;;;24.33;;
31652;SDS011;18261;53.648;9.910;2022-11-15T09:25:57;41.65;;;25.17;;
31652;SDS011;18261;53.648;9.910;2022-11-15T09:28:23;46.60;;;22.83;;
31652;SDS011;18261;53.648;9.910;2022-11-15T09:30:49;44.33;;;25.08;;
31652;SDS011;18261;53.648;9.910;2022-11-15T09:33:15;40.92;;;23.85;;
31652;SDS011;18261;53.648;9.910;2022-11-15T09:35:41;40.00;;;23.13;;
31652;SDS011;18261;53.648;9.910;2022-11-15T09:38:07;40.35;;;23.33;;
31652;SDS011;18261;53.648;9.910;2022-11-15T09:40:35;46.55;;;24.48;;
31652;SDS011;18261;53.648;9.910;2022-11-15T09:43:25;40.72;;;22.88;;
31652;SDS011;18261;53.648;9.910;2022-11-15T09:50:57;36.53;;;20.80;;
31652;SDS011;18261;53.648;9.910;2022-11-15T09:58:24;39.00;;;21.85;;
31652;SDS011;18261;53.648;9.910;2022-11-15T10:00:50;38.10;;;22.38;;
31652;SDS011;18261;53.648;9.910;2022-11-15T10:03:29;37.72;;;21.95;;
31652;SDS011;18261;53.648;9.910;2022-11-15T10:05:57;39.08;;;21.83;;
31652;SDS011;18261;53.648;9.910;2022-11-15T10:11:03;41.65;;;23.05;;
31652;SDS011;18261;53.648;9.910;2022-11-15T10:13:34;38.25;;;21.33;;
31652;SDS011;18261;53.648;9.910;2022-11-15T10:18:44;36.13;;;22.02;;
31652;SDS011;18261;53.648;9.910;2022-11-15T10:21:20;39.00;;;20.20;;
31652;SDS011;18261;53.648;9.910;2022-11-15T10:23:46;39.38;;;21.48;;
31652;SDS011;18261;53.648;9.910;2022-11-15T10:26:14;40.10;;;21.35;;
31652;SDS011;18261;53.648;9.910;2022-11-15T10:28:40;39.28;;;21.30;;
31652;SDS011;18261;53.648;9.910;2022-11-15T10:31:23;37.72;;;20.90;;
31652;SDS011;18261;53.648;9.910;2022-11-15T10:33:49;35.95;;;20.77;;
31652;SDS011;18261;53.648;9.910;2022-11-15T10:36:17;39.72;;;21.58;;
31652;SDS011;18261;53.648;9.910;2022-11-15T10:43:45;35.85;;;20.90;;
31652;SDS011;18261;53.648;9.910;2022-11-15T10:46:26;39.13;;;20.85;;
31652;SDS011;18261;53.648;9.910;2022-11-15T10:48:52;35.08;;;21.05;;
31652;SDS011;18261;53.648;9.910;2022-11-15T10:51:19;38.17;;;20.42;;
31652;SDS011;18261;53.648;9.910;2022-11-15T10:53:47;37.30;;;20.48;;
31652;SDS011;18261;53.648;9.910;2022-11-15T10:56:14;34.70;;;20.13;;
31652;SDS011;18261;53.648;9.910;2022-11-15T10:58:44;45.97;;;21.98;;
31652;SDS011;18261;53.648;9.910;2022-11-15T11:01:11;35.97;;;19.90;;
31652;SDS011;18261;53.648;9.910;2022-11-15T11:03:38;37.78;;;21.08;;
31652;SDS011;18261;53.648;9.910;2022-11-15T11:06:06;45.97;;;23.67;;
31652;SDS011;18261;53.648;9.910;2022-11-15T11:08:33;35.70;;;19.77;;
31652;SDS011;18261;53.648;9.910;2022-11-15T11:11:00;36.58;;;20.13;;
31652;SDS011;18261;53.648;9.910;2022-11-15T11:13:27;45.13;;;20.35;;
31652;SDS011;18261;53.648;9.910;2022-11-15T11:15:55;37.17;;;19.50;;
31652;SDS011;18261;53.648;9.910;2022-11-15T11:18:26;32.30;;;19.58;;
31652;SDS011;18261;53.648;9.910;2022-11-15T11:20:56;33.63;;;19.08;;
31652;SDS011;18261;53.648;9.910;2022-11-15T11:23:29;33.30;;;18.30;;
31652;SDS011;18261;53.648;9.910;2022-11-15T11:33:31;31.05;;;17.50;;
31652;SDS011;18261;53.648;9.910;2022-11-15T11:36:19;39.95;;;24.08;;
31652;SDS011;18261;53.648;9.910;2022-11-15T11:44:17;35.80;;;18.65;;
31652;SDS011;18261;53.648;9.910;2022-11-15T11:46:47;35.13;;;17.83;;
31652;SDS011;18261;53.648;9.910;2022-11-15T11:49:38;34.83;;;17.75;;
31652;SDS011;18261;53.648;9.910;2022-11-15T11:52:02;44.85;;;19.85;;
31652;SDS011;18261;53.648;9.910;2022-11-15T11:54:34;31.13;;;17.02;;
31652;SDS011;18261;53.648;9.910;2022-11-15T11:57:04;28.88;;;15.93;;
31652;SDS011;18261;53.648;9.910;2022-11-15T12:02:07;29.90;;;15.65;;
31652;SDS011;18261;53.648;9.910;2022-11-15T12:04:36;23.23;;;15.00;;
31652;SDS011;18261;53.648;9.910;2022-11-15T12:09:41;26.67;;;14.40;;
31652;SDS011;18261;53.648;9.910;2022-11-15T12:12:17;31.95;;;14.60;;
31652;SDS011;18261;53.648;9.910;2022-11-15T12:14:48;28.90;;;13.80;;
31652;SDS011;18261;53.648;9.910;2022-11-15T12:17:16;31.10;;;14.55;;
31652;SDS011;18261;53.648;9.910;2022-11-15T12:19:43;28.60;;;15.98;;
31652;SDS011;18261;53.648;9.910;2022-11-15T12:22:55;25.38;;;14.93;;
31652;SDS011;18261;53.648;9.910;2022-11-15T12:25:01;30.65;;;15.20;;
31652;SDS011;18261;53.648;9.910;2022-11-15T12:27:33;26.48;;;14.23;;
31652;SDS011;18261;53.648;9.910;2022-11-15T12:30:03;25.77;;;14.65;;
31652;SDS011;18261;53.648;9.910;2022-11-15T12:32:36;23.73;;;13.55;;
31652;SDS011;18261;53.648;9.910;2022-11-15T12:35:03;34.38;;;14.43;;
31652;SDS011;18261;53.648;9.910;2022-11-15T12:37:44;23.92;;;12.75;;
31652;SDS011;18261;53.648;9.910;2022-11-15T12:40:19;29.02;;;13.23;;
31652;SDS011;18261;53.648;9.910;2022-11-15T12:43:07;29.23;;;13.88;;
31652;SDS011;18261;53.648;9.910;2022-11-15T12:45:37;24.83;;;12.20;;
31652;SDS011;18261;53.648;9.910;2022-11-15T12:53:34;19.67;;;12.23;;
31652;SDS011;18261;53.648;9.910;2022-11-15T13:01:08;21.45;;;11.38;;
31652;SDS011;18261;53.648;9.910;2022-11-15T13:03:34;15.93;;;10.95;;
31652;SDS011;18261;53.648;9.910;2022-11-15T13:06:02;22.05;;;10.77;;
31652;SDS011;18261;53.648;9.910;2022-11-15T13:08:35;17.65;;;10.80;;
31652;SDS011;18261;53.648;9.910;2022-11-15T13:11:33;23.13;;;11.30;;
31652;SDS011;18261;53.648;9.910;2022-11-15T13:13:46;22.98;;;11.95;;
31652;SDS011;18261;53.648;9.910;2022-11-15T13:16:17;21.40;;;11.65;;
31652;SDS011;18261;53.648;9.910;2022-11-15T13:18:52;21.02;;;11.15;;
31652;SDS011;18261;53.648;9.910;2022-11-15T13:21:20;20.05;;;10.23;;
31652;SDS011;18261;53.648;9.910;2022-11-15T13:24:09;20.80;;;11.45;;
31652;SDS011;18261;53.648;9.910;2022-11-15T13:26:37;19.50;;;11.02;;
31652;SDS011;18261;53.648;9.910;2022-11-15T13:29:04;24.20;;;10.57;;
31652;SDS011;18261;53.648;9.910;2022-11-15T13:31:40;23.48;;;10.73;;
31652;SDS011;18261;53.648;9.910;2022-11-15T13:34:16;21.83;;;11.13;;
31652;SDS011;18261;53.648;9.910;2022-11-15T13:36:42;16.20;;;10.07;;
31652;SDS011;18261;53.648;9.910;2022-11-15T13:44:38;28.35;;;10.50;;
31652;SDS011;18261;53.648;9.910;2022-11-15T13:47:05;20.27;;;11.07;;
31652;SDS011;18261;53.648;9.910;2022-11-15T13:49:32;19.58;;;11.30;;
31652;SDS011;18261;53.648;9.910;2022-11-15T13:51:59;21.70;;;10.43;;
31652;SDS011;18261;53.648;9.910;2022-11-15T13:54:34;24.63;;;12.73;;
31652;SDS011;18261;53.648;9.910;2022-11-15T13:59:46;24.60;;;10.45;;
31652;SDS011;18261;53.648;9.910;2022-11-15T14:02:14;23.15;;;10.65;;
31652;SDS011;18261;53.648;9.910;2022-11-15T14:04:45;18.38;;;10.82;;
31652;SDS011;18261;53.648;9.910;2022-11-15T14:07:16;20.60;;;10.48;;
31652;SDS011;18261;53.648;9.910;2022-11-15T14:09:42;16.95;;;9.55;;
31652;SDS011;18261;53.648;9.910;2022-11-15T14:12:30;16.85;;;10.20;;
31652;SDS011;18261;53.648;9.910;2022-11-15T14:14:57;19.88;;;10.32;;
31652;SDS011;18261;53.648;9.910;2022-11-15T14:17:34;19.20;;;10.60;;
31652;SDS011;18261;53.648;9.910;2022-11-15T14:20:00;18.65;;;10.85;;
31652;SDS011;18261;53.648;9.910;2022-11-15T14:22:26;19.15;;;11.15;;
31652;SDS011;18261;53.648;9.910;2022-11-15T14:27:37;20.05;;;10.90;;
31652;SDS011;18261;53.648;9.910;2022-11-15T14:30:04;24.08;;;13.90;;
31652;SDS011;18261;53.648;9.910;2022-11-15T14:32:43;25.15;;;14.15;;
31652;SDS011;18261;53.648;9.910;2022-11-15T14:35:11;18.73;;;11.00;;
31652;SDS011;18261;53.648;9.910;2022-11-15T14:37:38;23.35;;;10.07;;
31652;SDS011;18261;53.648;9.910;2022-11-15T14:40:05;18.42;;;11.15;;
31652;SDS011;18261;53.648;9.910;2022-11-15T14:42:31;19.85;;;10.95;;
31652;SDS011;18261;53.648;9.910;2022-11-15T14:44:57;20.13;;;11.13;;
31652;SDS011;18261;53.648;9.910;2022-11-15T14:47:23;20.98;;;11.40;;
31652;SDS011;18261;53.648;9.910;2022-11-15T14:49:49;20.23;;;11.35;;
31652;SDS011;18261;53.648;9.910;2022-11-15T14:52:29;22.13;;;11.27;;
31652;SDS011;18261;53.648;9.910;2022-11-15T14:54:58;17.08;;;10.95;;
31652;SDS011;18261;53.648;9.910;2022-11-15T14:57:24;20.30;;;11.10;;
31652;SDS011;18261;53.648;9.910;2022-11-15T14:59:50;20.10;;;11.57;;
31652;SDS011;18261;53.648;9.910;2022-11-15T15:02:18;20.85;;;11.23;;
31652;SDS011;18261;53.648;9.910;2022-11-15T15:04:45;23.05;;;11.90;;
31652;SDS011;18261;53.648;9.910;2022-11-15T15:07:11;23.63;;;11.55;;
31652;SDS011;18261;53.648;9.910;2022-11-15T15:09:37;18.50;;;11.73;;
31652;SDS011;18261;53.648;9.910;2022-11-15T15:12:04;29.35;;;12.60;;
31652;SDS011;18261;53.648;9.910;2022-11-15T15:14:31;27.90;;;12.43;;
31652;SDS011;18261;53.648;9.910;2022-11-15T15:16:57;19.35;;;12.20;;
31652;SDS011;18261;53.648;9.910;2022-11-15T15:19:23;26.30;;;12.68;;
31652;SDS011;18261;53.648;9.910;2022-11-15T15:21:49;23.90;;;12.77;;
31652;SDS011;18261;53.648;9.910;2022-11-15T15:24:15;20.70;;;11.88;;
31652;SDS011;18261;53.648;9.910;2022-11-15T15:26:41;19.60;;;12.20;;
31652;SDS011;18261;53.648;9.910;2022-11-15T15:29:08;22.95;;;12.13;;
31652;SDS011;18261;53.648;9.910;2022-11-15T15:31:34;21.70;;;12.18;;
31652;SDS011;18261;53.648;9.910;2022-11-15T15:34:00;21.90;;;13.07;;
31652;SDS011;18261;53.648;9.910;2022-11-15T15:36:26;20.40;;;12.77;;
31652;SDS011;18261;53.648;9.910;2022-11-15T15:38:52;35.28;;;19.48;;
31652;SDS011;18261;53.648;9.910;2022-11-15T15:41:18;25.65;;;14.05;;
31652;SDS011;18261;53.648;9.910;2022-11-15T15:43:44;24.50;;;13.05;;
31652;SDS011;18261;53.648;9.910;2022-11-15T15:46:18;25.02;;;13.00;;
31652;SDS011;18261;53.648;9.910;2022-11-15T15:48:44;21.25;;;11.55;;
31652;SDS011;18261;53.648;9.910;2022-11-15T15:51:10;20.67;;;12.07;;
31652;SDS011;18261;53.648;9.910;2022-11-15T15:53:37;26.25;;;12.73;;
31652;SDS011;18261;53.648;9.910;2022-11-15T15:56:03;30.02;;;14.27;;
31652;SDS011;18261;53.648;9.910;2022-11-15T15:58:29;26.15;;;14.13;;